createdAt,value
2019-02-05T00:01:29.314Z,101519.23
2019-02-05T00:03:59.485Z,101528.98
2019-02-05T00:06:29.653Z,101528.61
2019-02-05T00:08:59.483Z,101534.63
2019-02-05T00:11:29.738Z,101530.15
2019-02-05T00:14:00.085Z,101536.41
2019-02-05T00:16:30.507Z,101540.60
2019-02-05T00:19:00.813Z,101540.84
2019-02-05T00:21:30.933Z,101544.98
2019-02-05T00:24:00.689Z,101543.68
2019-02-05T00:26:30.231Z,101545.22
2019-02-05T00:29:00.055Z,101541.82
2019-02-05T00:31:29.653Z,101548.81
2019-02-05T00:33:59.044Z,101552.50
2019-02-05T00:36:28.152Z,101552.50
2019-02-05T00:38:57.697Z,101557.78
2019-02-05T00:41:27.081Z,101560.20
2019-02-05T00:43:56.124Z,101556.13
2019-02-05T00:46:27.991Z,101559.97
2019-02-05T00:48:57.935Z,101568.50
2019-02-05T00:51:28.055Z,101566.89
2019-02-05T00:53:58.123Z,101561.38
2019-02-05T00:56:27.485Z,101567.59
2019-02-05T00:58:57.113Z,101576.83
2019-02-05T01:01:27.234Z,101576.80
2019-02-05T01:03:57.518Z,101575.42
2019-02-05T01:06:27.126Z,101575.87
2019-02-05T01:08:56.733Z,101583.71
2019-02-05T01:11:26.878Z,101580.78
2019-02-05T01:13:56.993Z,101581.09
2019-02-05T01:16:27.235Z,101586.55
2019-02-05T01:18:57.140Z,101584.53
2019-02-05T01:21:27.137Z,101586.17
2019-02-05T01:23:57.025Z,101594.11
2019-02-05T01:26:29.460Z,101597.59
2019-02-05T01:28:57.018Z,101608.28
2019-02-05T01:31:26.882Z,101608.25
2019-02-05T01:33:56.712Z,101608.69
2019-02-05T01:36:26.932Z,101616.87
2019-02-05T01:38:56.857Z,101612.67
2019-02-05T01:41:26.470Z,101620.66
2019-02-05T01:43:55.561Z,101618.12
2019-02-05T01:46:24.640Z,101630.80
2019-02-05T01:48:54.051Z,101627.50
2019-02-05T01:51:23.758Z,101633.05
2019-02-05T01:53:52.993Z,101634.67
2019-02-05T01:56:22.656Z,101635.19
2019-02-05T01:58:52.147Z,101636.11
2019-02-05T02:01:21.511Z,101637.00
2019-02-05T02:03:52.112Z,101647.00
2019-02-05T02:06:21.534Z,101644.69
2019-02-05T02:08:50.815Z,101645.61
2019-02-05T02:11:19.972Z,101653.39
2019-02-05T02:13:49.162Z,101654.28
2019-02-05T02:16:18.953Z,101660.08
2019-02-05T02:18:48.802Z,101659.98
2019-02-05T02:21:17.932Z,101660.59
2019-02-05T02:23:47.639Z,101664.61
2019-02-05T02:26:16.645Z,101671.73
2019-02-05T02:28:46.202Z,101679.22
2019-02-05T02:31:15.724Z,101675.83
2019-02-05T02:33:45.084Z,101683.00
2019-02-05T02:36:14.143Z,101689.10
2019-02-05T02:38:43.195Z,101694.95
2019-02-05T02:41:12.732Z,101698.20
2019-02-05T02:43:42.768Z,101692.48
2019-02-05T02:46:12.376Z,101699.09
2019-02-05T02:48:41.477Z,101705.67
2019-02-05T02:51:10.856Z,101709.67
2019-02-05T02:53:40.863Z,101719.55
2019-02-05T02:56:10.987Z,101711.30
2019-02-05T02:58:41.114Z,101710.72
2019-02-05T03:01:11.248Z,101724.14
2019-02-05T03:03:41.253Z,101727.06
2019-02-05T03:06:10.768Z,101723.55
2019-02-05T03:08:40.906Z,101722.27
2019-02-05T03:11:10.893Z,101725.72
2019-02-05T03:13:40.527Z,101725.18
2019-02-05T03:16:09.827Z,101727.86
2019-02-05T03:18:39.482Z,101725.17
2019-02-05T03:21:09.176Z,101729.02
2019-02-05T03:23:38.933Z,101730.88
2019-02-05T03:26:08.099Z,101732.31
2019-02-05T03:28:37.551Z,101736.23
2019-02-05T03:31:07.211Z,101736.44
2019-02-05T03:33:37.426Z,101735.92
2019-02-05T03:36:06.861Z,101745.96
2019-02-05T03:38:36.662Z,101744.74
2019-02-05T03:41:06.575Z,101743.40
2019-02-05T03:43:36.477Z,101744.91
2019-02-05T03:46:06.268Z,101746.63
2019-02-05T03:48:36.028Z,101742.13
2019-02-05T03:51:06.002Z,101740.05
2019-02-05T03:53:35.820Z,101737.44
2019-02-05T03:56:05.203Z,101740.30
2019-02-05T03:58:35.387Z,101746.96
2019-02-05T04:01:05.972Z,101745.30
2019-02-05T04:03:35.471Z,101750.00
2019-02-05T04:06:05.183Z,101751.70
2019-02-05T04:08:34.701Z,101753.73
2019-02-05T04:11:04.455Z,101752.11
2019-02-05T04:13:34.303Z,101743.88
2019-02-05T04:16:04.443Z,101741.26
2019-02-05T04:18:34.344Z,101731.28
2019-02-05T04:21:03.861Z,101738.73
2019-02-05T04:23:33.973Z,101731.39
2019-02-05T04:26:04.107Z,101728.05
2019-02-05T04:28:33.961Z,101723.73
2019-02-05T04:31:04.341Z,101717.22
2019-02-05T04:33:33.833Z,101714.92
2019-02-05T04:36:03.310Z,101717.77
2019-02-05T04:38:33.363Z,101717.63
2019-02-05T04:41:02.662Z,101722.77
2019-02-05T04:43:33.040Z,101711.75
2019-02-05T04:46:02.705Z,101711.27
2019-02-05T04:48:32.930Z,101701.55
2019-02-05T04:51:03.073Z,101704.27
2019-02-05T04:53:32.963Z,101700.56
2019-02-05T04:56:03.100Z,101693.83
2019-02-05T04:58:33.073Z,101690.14
2019-02-05T05:01:02.995Z,101691.63
2019-02-05T05:03:33.849Z,101690.16
2019-02-05T05:06:02.875Z,101688.90
2019-02-05T05:08:32.745Z,101682.22
2019-02-05T05:11:02.636Z,101682.34
2019-02-05T05:13:32.873Z,101677.00
2019-02-05T05:16:05.481Z,101673.58
2019-02-05T05:18:34.800Z,101660.45
2019-02-05T05:21:04.241Z,101662.35
2019-02-05T05:23:33.791Z,101660.77
2019-02-05T05:26:03.460Z,101654.86
2019-02-05T05:28:33.273Z,101650.50
2019-02-05T05:31:03.263Z,101647.90
2019-02-05T05:33:33.215Z,101649.58
2019-02-05T05:36:02.546Z,101644.87
2019-02-05T05:38:32.127Z,101638.52
2019-02-05T05:41:01.603Z,101629.83
2019-02-05T05:43:31.093Z,101639.12
2019-02-05T05:46:00.814Z,101632.72
2019-02-05T05:48:30.759Z,101628.17
2019-02-05T05:51:00.566Z,101616.26
2019-02-05T05:53:30.893Z,101609.48
2019-02-05T05:56:00.915Z,101600.35
2019-02-05T05:58:31.843Z,101596.31
2019-02-05T06:01:02.772Z,101594.23
2019-02-05T06:03:32.588Z,101592.08
2019-02-05T06:06:02.308Z,101589.43
2019-02-05T06:08:32.107Z,101585.25
2019-02-05T06:11:01.930Z,101581.48
2019-02-05T06:13:31.941Z,101567.45
2019-02-05T06:16:01.653Z,101565.77
2019-02-05T06:18:31.377Z,101567.46
2019-02-05T06:21:01.510Z,101560.25
2019-02-05T06:23:31.601Z,101557.69
2019-02-05T06:26:01.400Z,101550.84
2019-02-05T06:28:34.818Z,101545.25
2019-02-05T06:31:01.875Z,101540.73
2019-02-05T06:33:31.579Z,101527.88
2019-02-05T06:36:01.391Z,101528.64
2019-02-05T06:38:31.188Z,101520.17
2019-02-05T06:41:00.499Z,101518.00
2019-02-05T06:43:31.011Z,101504.13
2019-02-05T06:46:00.553Z,101499.17
2019-02-05T06:48:30.122Z,101493.28
2019-02-05T06:50:59.898Z,101488.58
2019-02-05T06:53:29.959Z,101488.19
2019-02-05T06:56:00.168Z,101477.47
2019-02-05T06:58:29.288Z,101468.91
2019-02-05T07:00:59.600Z,101472.19
2019-02-05T07:03:29.517Z,101459.78
2019-02-05T07:05:59.541Z,101457.67
2019-02-05T07:08:29.243Z,101453.96
2019-02-05T07:10:58.767Z,101447.09
2019-02-05T07:13:28.338Z,101434.28
2019-02-05T07:15:58.370Z,101433.94
2019-02-05T07:18:27.870Z,101425.78
2019-02-05T07:20:57.300Z,101420.65
2019-02-05T07:23:26.902Z,101416.08
2019-02-05T07:25:57.140Z,101405.34
2019-02-05T07:28:26.659Z,101403.01
2019-02-05T07:30:56.523Z,101399.00
2019-02-05T07:33:26.445Z,101392.86
2019-02-05T07:35:56.147Z,101381.78
2019-02-05T07:38:25.877Z,101379.09
2019-02-05T07:40:55.551Z,101377.34
2019-02-05T07:43:25.497Z,101369.95
2019-02-05T07:45:55.204Z,101364.92
2019-02-05T07:48:24.741Z,101360.30
2019-02-05T07:50:54.604Z,101346.78
2019-02-05T07:53:25.154Z,101352.30
2019-02-05T07:55:54.868Z,101349.59
2019-02-05T07:58:24.672Z,101341.17
2019-02-05T08:00:54.877Z,101336.38
2019-02-05T08:03:24.485Z,101332.12
2019-02-05T08:05:54.617Z,101321.32
2019-02-05T08:08:24.202Z,101318.89
2019-02-05T08:10:54.046Z,101313.36
2019-02-05T08:13:23.963Z,101313.24
2019-02-05T08:15:53.641Z,101296.89
2019-02-05T08:18:23.158Z,101295.41
2019-02-05T08:20:52.971Z,101288.39
2019-02-05T08:23:22.895Z,101285.06
2019-02-05T08:25:53.107Z,101269.47
2019-02-05T08:28:22.536Z,101275.56
2019-02-05T08:30:52.429Z,101266.89
2019-02-05T08:33:21.827Z,101262.67
2019-02-05T08:35:51.712Z,101259.12
2019-02-05T08:38:21.867Z,101253.48
2019-02-05T08:40:51.821Z,101250.70
2019-02-05T08:43:21.188Z,101248.53
2019-02-05T08:45:56.642Z,101233.70
2019-02-05T08:48:21.293Z,101228.03
2019-02-05T08:50:52.311Z,101230.05
2019-02-05T08:53:22.384Z,101223.45
2019-02-05T08:55:52.167Z,101224.64
2019-02-05T08:58:30.570Z,101224.75
2019-02-05T09:00:52.419Z,101221.87
2019-02-05T09:03:22.243Z,101213.64
2019-02-05T09:05:52.243Z,101204.77
2019-02-05T09:08:21.960Z,101203.06
2019-02-05T09:10:52.287Z,101202.01
2019-02-05T09:13:21.953Z,101197.06
2019-02-05T09:15:51.514Z,101191.69
2019-02-05T09:18:21.525Z,101188.17
2019-02-05T09:20:51.908Z,101183.76
2019-02-05T09:23:21.436Z,101186.95
2019-02-05T09:25:51.737Z,101183.56
2019-02-05T09:28:21.899Z,101179.29
2019-02-05T09:30:53.080Z,101173.32
2019-02-05T09:33:23.140Z,101172.66
2019-02-05T09:35:53.287Z,101171.56
2019-02-05T09:38:23.314Z,101170.87
2019-02-05T09:40:53.329Z,101163.63
2019-02-05T09:43:23.085Z,101168.52
2019-02-05T09:45:52.686Z,101161.82
2019-02-05T09:48:22.838Z,101161.33
2019-02-05T09:50:52.217Z,101159.79
2019-02-05T09:53:21.965Z,101155.21
2019-02-05T09:55:51.983Z,101155.66
2019-02-05T09:58:22.013Z,101150.09
2019-02-05T10:00:52.113Z,101148.95
2019-02-05T10:03:21.921Z,101147.50
2019-02-05T10:05:51.122Z,101149.22
2019-02-05T10:08:20.713Z,101140.09
2019-02-05T10:10:50.836Z,101148.38
2019-02-05T10:13:20.675Z,101147.00
2019-02-05T10:15:51.275Z,101143.74
2019-02-05T10:18:21.304Z,101145.70
2019-02-05T10:20:51.240Z,101140.94
2019-02-05T10:23:20.905Z,101140.11
2019-02-05T10:25:50.375Z,101137.17
2019-02-05T10:28:20.906Z,101139.22
2019-02-05T10:30:50.809Z,101139.68
2019-02-05T10:33:20.523Z,101139.30
2019-02-05T10:35:50.657Z,101141.75
2019-02-05T10:38:20.220Z,101136.35
2019-02-05T10:40:50.535Z,101136.86
2019-02-05T10:43:20.340Z,101136.95
2019-02-05T10:45:50.161Z,101128.34
2019-02-05T10:48:20.504Z,101129.28
2019-02-05T10:50:50.532Z,101130.93
2019-02-05T10:53:20.851Z,101126.64
2019-02-05T10:55:50.544Z,101128.64
2019-02-05T10:58:21.065Z,101130.88
2019-02-05T11:00:51.196Z,101130.36
2019-02-05T11:03:21.592Z,101130.84
2019-02-05T11:05:51.323Z,101128.20
2019-02-05T11:08:21.706Z,101124.23
2019-02-05T11:10:51.773Z,101126.84
2019-02-05T11:13:21.229Z,101119.90
2019-02-05T11:15:51.498Z,101127.09
2019-02-05T11:18:21.701Z,101124.75
2019-02-05T11:20:52.107Z,101115.91
2019-02-05T11:23:22.169Z,101121.05
2019-02-05T11:25:52.254Z,101122.84
2019-02-05T11:28:22.446Z,101120.09
2019-02-05T11:30:53.168Z,101120.78
2019-02-05T11:33:22.860Z,101113.01
2019-02-05T11:35:52.978Z,101121.05
2019-02-05T11:38:23.400Z,101110.42
2019-02-05T11:40:53.415Z,101110.58
2019-02-05T11:43:23.483Z,101113.92
2019-02-05T11:45:53.382Z,101115.93
2019-02-05T11:48:23.582Z,101110.25
2019-02-05T11:50:53.613Z,101108.86
2019-02-05T11:53:23.786Z,101107.69
2019-02-05T11:55:53.636Z,101111.61
2019-02-05T11:58:23.098Z,101107.06
2019-02-05T12:00:53.611Z,101112.77
2019-02-05T12:03:24.107Z,101115.98
2019-02-05T12:05:54.185Z,101114.08
2019-02-05T12:08:24.704Z,101109.77
2019-02-05T12:10:54.655Z,101109.97
2019-02-05T12:13:24.221Z,101113.19
2019-02-05T12:15:54.384Z,101111.42
2019-02-05T12:18:24.327Z,101105.99
2019-02-05T12:20:54.096Z,101102.05
2019-02-05T12:23:23.785Z,101104.52
2019-02-05T12:25:54.521Z,101107.71
2019-02-05T12:28:24.020Z,101110.90
2019-02-05T12:30:53.175Z,101113.46
2019-02-05T12:33:23.145Z,101110.50
2019-02-05T12:35:52.886Z,101117.68
2019-02-05T12:38:22.257Z,101114.72
2019-02-05T12:40:52.102Z,101116.06
2019-02-05T12:43:22.498Z,101118.18
2019-02-05T12:45:52.302Z,101116.55
2019-02-05T12:48:22.458Z,101120.51
2019-02-05T12:50:52.139Z,101119.72
2019-02-05T12:53:21.467Z,101118.61
2019-02-05T12:55:51.093Z,101120.79
2019-02-05T12:58:20.834Z,101122.54
2019-02-05T13:00:58.240Z,101120.86
2019-02-05T13:03:20.895Z,101124.13
2019-02-05T13:05:50.612Z,101121.84
2019-02-05T13:08:20.322Z,101135.13
2019-02-05T13:10:50.340Z,101140.13
2019-02-05T13:13:20.059Z,101132.12
2019-02-05T13:15:50.018Z,101143.80
2019-02-05T13:18:19.452Z,101142.83
2019-02-05T13:20:48.995Z,101149.83
2019-02-05T13:23:18.977Z,101148.51
2019-02-05T13:25:48.421Z,101151.69
2019-02-05T13:28:18.182Z,101157.64
2019-02-05T13:30:47.626Z,101159.69
2019-02-05T13:33:17.512Z,101157.58
2019-02-05T13:35:47.558Z,101164.19
2019-02-05T13:38:17.542Z,101168.74
2019-02-05T13:40:46.979Z,101174.44
2019-02-05T13:43:19.180Z,101175.92
2019-02-05T13:45:50.536Z,101179.08
2019-02-05T13:48:20.515Z,101181.38
2019-02-05T13:50:50.619Z,101190.15
2019-02-05T13:53:20.773Z,101191.02
2019-02-05T13:55:50.775Z,101189.72
2019-02-05T13:58:21.388Z,101194.43
2019-02-05T14:00:51.348Z,101194.80
2019-02-05T14:03:21.224Z,101204.66
2019-02-05T14:05:50.812Z,101209.22
2019-02-05T14:08:20.530Z,101205.77
2019-02-05T14:10:49.616Z,101213.11
2019-02-05T14:13:19.941Z,101210.36
2019-02-05T14:15:50.096Z,101215.79
2019-02-05T14:18:22.646Z,101216.28
2019-02-05T14:20:51.369Z,101217.97
2019-02-05T14:23:21.659Z,101227.55
2019-02-05T14:25:51.665Z,101224.92
2019-02-05T14:28:21.180Z,101224.80
2019-02-05T14:30:51.624Z,101228.52
2019-02-05T14:33:21.853Z,101234.98
2019-02-05T14:35:51.225Z,101232.34
2019-02-05T14:38:21.252Z,101231.78
2019-02-05T14:40:50.658Z,101226.30
2019-02-05T14:43:19.938Z,101219.23
2019-02-05T14:45:49.139Z,101224.50
2019-02-05T14:48:21.541Z,101219.84
2019-02-05T14:50:51.705Z,101216.01
2019-02-05T14:53:21.266Z,101226.17
2019-02-05T14:55:58.333Z,101226.65
2019-02-05T14:58:32.340Z,101230.36
2019-02-05T15:01:03.358Z,101228.95
2019-02-05T15:03:33.707Z,101226.65
2019-02-05T15:06:07.658Z,101233.78
2019-02-05T15:08:38.216Z,101234.83
2019-02-05T15:11:07.890Z,101238.05
2019-02-05T15:13:37.090Z,101238.28
2019-02-05T15:16:07.562Z,101236.75
2019-02-05T15:18:39.975Z,101238.64
2019-02-05T15:21:09.402Z,101232.52
2019-02-05T15:23:43.655Z,101235.99
2019-02-05T15:26:17.051Z,101240.80
2019-02-05T15:28:47.254Z,101238.41
2019-02-05T15:31:16.576Z,101235.28
2019-02-05T15:33:46.377Z,101238.98
2019-02-05T15:36:16.681Z,101240.28
2019-02-05T15:38:46.776Z,101244.06
2019-02-05T15:41:18.860Z,101253.08
2019-02-05T15:43:49.055Z,101247.45
2019-02-05T15:46:20.139Z,101252.81
2019-02-05T15:48:49.739Z,101249.80
2019-02-05T15:51:21.527Z,101248.75
2019-02-05T15:53:54.542Z,101248.61
2019-02-05T15:56:25.188Z,101251.21
2019-02-05T15:58:57.132Z,101253.94
2019-02-05T16:01:27.174Z,101257.28
2019-02-05T16:03:58.650Z,101257.45
2019-02-05T16:06:28.772Z,101258.05
2019-02-05T16:09:00.467Z,101260.09
2019-02-05T16:11:31.973Z,101252.32
2019-02-05T16:14:01.541Z,101257.81
2019-02-05T16:16:34.778Z,101254.23
2019-02-05T16:19:11.122Z,101256.98
2019-02-05T16:21:42.318Z,101252.89
2019-02-05T16:24:16.180Z,101253.09
2019-02-05T16:26:52.301Z,101250.55
2019-02-05T16:29:27.217Z,101258.63
2019-02-05T16:31:57.820Z,101248.13
2019-02-05T16:34:27.311Z,101247.25
2019-02-05T16:36:58.047Z,101254.77
2019-02-05T16:39:31.764Z,101250.00
2019-02-05T16:42:06.264Z,101253.41
2019-02-05T16:44:42.184Z,101249.14
2019-02-05T16:47:18.886Z,101252.62
2019-02-05T16:49:53.668Z,101249.48
2019-02-05T16:52:23.656Z,101254.72
2019-02-05T16:54:54.578Z,101256.47
2019-02-05T16:57:25.382Z,101252.53
2019-02-05T16:59:56.088Z,101248.03
2019-02-05T17:02:31.095Z,101247.88
2019-02-05T17:05:03.334Z,101244.66
2019-02-05T17:07:32.842Z,101244.77
2019-02-05T17:10:02.863Z,101243.16
2019-02-05T17:12:33.701Z,101244.83
2019-02-05T17:15:05.204Z,101239.70
2019-02-05T17:17:38.978Z,101241.48
2019-02-05T17:20:11.572Z,101234.64
2019-02-05T17:22:45.143Z,101233.75
2019-02-05T17:25:16.520Z,101232.77
2019-02-05T17:27:46.252Z,101230.88
2019-02-05T17:30:16.334Z,101233.66
2019-02-05T17:32:45.684Z,101233.98
2019-02-05T17:35:15.127Z,101230.58
2019-02-05T17:37:44.339Z,101224.20
2019-02-05T17:40:13.575Z,101224.01
2019-02-05T17:42:43.569Z,101226.05
2019-02-05T17:45:12.785Z,101224.55
2019-02-05T17:47:41.889Z,101223.23
2019-02-05T17:50:13.500Z,101220.13
2019-02-05T17:52:44.898Z,101219.84
2019-02-05T17:55:15.378Z,101214.94
2019-02-05T17:57:47.216Z,101215.69
2019-02-05T18:00:18.381Z,101205.48
2019-02-05T18:02:51.575Z,101206.98
2019-02-05T18:05:19.828Z,101204.36
2019-02-05T18:07:50.056Z,101204.91
2019-02-05T18:10:20.247Z,101199.64
2019-02-05T18:12:50.212Z,101194.70
2019-02-05T18:15:20.917Z,101193.75
2019-02-05T18:17:51.456Z,101195.65
2019-02-05T18:20:21.577Z,101198.38
2019-02-05T18:22:52.261Z,101192.11
2019-02-05T18:25:21.823Z,101189.13
2019-02-05T18:27:52.432Z,101190.80
2019-02-05T18:30:24.127Z,101191.82
2019-02-05T18:33:03.360Z,101189.89
2019-02-05T18:35:25.263Z,101186.63
2019-02-05T18:37:55.744Z,101176.66
2019-02-05T18:40:29.937Z,101176.77
2019-02-05T18:43:01.819Z,101181.06
2019-02-05T18:45:32.964Z,101176.77
2019-02-05T18:48:04.086Z,101177.06
2019-02-05T18:50:35.056Z,101177.42
2019-02-05T19:00:42.575Z,101174.66
2019-02-05T19:03:16.299Z,101174.95
2019-02-05T19:05:42.342Z,101172.08
2019-02-05T19:08:12.240Z,101166.66
2019-02-05T19:10:42.056Z,101165.45
2019-02-05T19:13:14.497Z,101159.27
2019-02-05T19:15:47.181Z,101155.96
2019-02-05T19:18:17.259Z,101157.67
2019-02-05T19:20:46.450Z,101157.38
2019-02-05T19:23:16.488Z,101159.64
2019-02-05T19:25:46.539Z,101156.95
2019-02-05T19:28:16.245Z,101159.20
2019-02-05T19:30:46.099Z,101159.45
2019-02-05T19:33:26.405Z,101150.51
2019-02-05T19:35:46.660Z,101148.62
2019-02-05T19:38:15.950Z,101152.18
2019-02-05T19:40:56.814Z,101152.66
2019-02-05T19:43:16.815Z,101148.66
2019-02-05T19:45:46.230Z,101147.84
2019-02-05T19:48:16.400Z,101141.87
2019-02-05T19:50:46.649Z,101138.58
2019-02-05T19:53:16.584Z,101136.06
2019-02-05T19:55:46.286Z,101128.68
2019-02-05T19:58:16.419Z,101133.73
2019-02-05T20:00:46.745Z,101125.52
2019-02-05T20:03:16.857Z,101128.79
2019-02-05T20:05:46.852Z,101119.80
2019-02-05T20:08:16.656Z,101120.50
2019-02-05T20:10:46.566Z,101118.16
2019-02-05T20:13:16.628Z,101117.33
2019-02-05T20:15:46.522Z,101115.80
2019-02-05T20:18:16.951Z,101113.66
2019-02-05T20:20:46.453Z,101108.27
2019-02-05T20:23:16.467Z,101112.02
2019-02-05T20:25:46.375Z,101109.51
2019-02-05T20:28:15.693Z,101113.44
2019-02-05T20:30:45.616Z,101108.67
2019-02-05T20:33:15.815Z,101110.16
2019-02-05T20:35:46.485Z,101109.77
2019-02-05T20:38:16.573Z,101103.62
2019-02-05T20:40:46.623Z,101102.59
2019-02-05T20:43:17.041Z,101105.14
2019-02-05T20:45:47.015Z,101091.13
2019-02-05T20:48:17.251Z,101098.98
2019-02-05T20:50:47.070Z,101090.48
2019-02-05T20:53:16.778Z,101087.31
2019-02-05T20:55:46.571Z,101086.84
2019-02-05T20:58:16.009Z,101081.53
2019-02-05T21:00:46.416Z,101084.69
2019-02-05T21:03:16.126Z,101082.19
2019-02-05T21:05:46.535Z,101086.42
2019-02-05T21:08:16.061Z,101076.03
2019-02-05T21:10:46.375Z,101079.59
2019-02-05T21:13:16.402Z,101078.39
2019-02-05T21:15:45.570Z,101073.91
2019-02-05T21:18:17.398Z,101079.63
2019-02-05T21:20:45.386Z,101071.05
2019-02-05T21:23:15.447Z,101065.90
2019-02-05T21:25:45.852Z,101063.28
2019-02-05T21:28:15.942Z,101060.30
2019-02-05T21:30:45.787Z,101068.72
2019-02-05T21:33:18.830Z,101064.80
2019-02-05T21:35:46.360Z,101065.16
2019-02-05T21:38:15.930Z,101060.98
2019-02-05T21:40:46.051Z,101060.87
2019-02-05T21:43:16.087Z,101060.48
2019-02-05T21:45:46.420Z,101055.44
2019-02-05T21:48:16.645Z,101056.16
2019-02-05T21:50:46.447Z,101052.80
2019-02-05T21:53:16.851Z,101057.09
2019-02-05T21:55:46.852Z,101056.09
2019-02-05T21:58:16.966Z,101054.14
2019-02-05T22:00:47.344Z,101056.98
2019-02-05T22:03:17.754Z,101054.02
2019-02-05T22:05:47.988Z,101051.08
2019-02-05T22:08:18.189Z,101051.55
2019-02-05T22:10:48.331Z,101045.67
2019-02-05T22:13:17.765Z,101050.92
2019-02-05T22:15:47.821Z,101044.92
2019-02-05T22:18:16.903Z,101040.46
2019-02-05T22:20:46.975Z,101047.17
2019-02-05T22:23:17.486Z,101042.41
2019-02-05T22:25:47.507Z,101047.09
2019-02-05T22:28:20.453Z,101044.48
2019-02-05T22:30:48.461Z,101045.32
2019-02-05T22:33:18.796Z,101053.81
2019-02-05T22:35:48.784Z,101052.78
2019-02-05T22:38:18.739Z,101046.82
2019-02-05T22:40:48.900Z,101046.35
2019-02-05T22:43:18.551Z,101045.89
2019-02-05T22:45:48.095Z,101047.95
2019-02-05T22:48:18.167Z,101049.55
2019-02-05T22:50:48.054Z,101055.13
2019-02-05T22:53:17.258Z,101051.22
2019-02-05T22:55:46.677Z,101046.36
2019-02-05T22:58:16.471Z,101049.44
2019-02-05T23:00:46.492Z,101052.88
2019-02-05T23:03:15.624Z,101046.09
2019-02-05T23:05:45.164Z,101055.97
2019-02-05T23:08:14.693Z,101051.78
2019-02-05T23:10:43.904Z,101050.02
2019-02-05T23:13:13.698Z,101046.84
2019-02-05T23:15:43.618Z,101050.20
2019-02-05T23:18:13.235Z,101052.42
2019-02-05T23:20:42.295Z,101056.82
2019-02-05T23:23:11.345Z,101063.27
2019-02-05T23:25:40.344Z,101064.30
2019-02-05T23:28:09.507Z,101070.99
2019-02-05T23:30:38.508Z,101068.69
2019-02-05T23:33:07.771Z,101068.69
2019-02-05T23:35:36.919Z,101067.00
2019-02-05T23:38:05.975Z,101076.22
2019-02-05T23:40:34.976Z,101072.41
2019-02-05T23:43:04.180Z,101080.82
2019-02-05T23:45:33.188Z,101075.39
2019-02-05T23:48:02.206Z,101085.38
2019-02-05T23:50:31.748Z,101082.13
2019-02-05T23:53:01.423Z,101087.42
2019-02-05T23:55:30.990Z,101088.47
2019-02-05T23:58:00.895Z,101087.53
